Jamestown, Indiana
Current Conditions -  °F | °C
As of 3:00 AM on Tuesday 27 Jan 2015 (Local Time) from KEYE Reporting Station
Haze Haze  
Wind Chill: 26°   Ceiling: 900
Heat Index: 26°   Visibility: 5mi
Dew Point: 25°   Wind: 0mph
Humidity: 96%   Direction: NA
Pressure: 29.91"   Gusts: NA
Location:  39.93°N, 86.63°W
Report Text: KEYE 270800Z AUTO 00000KT 5SM BR BKN009 BKN015 OVC026 M03/M04 A2991 RMK AO2 CIG 005V012 T10331039 $
Loading
Personal Weather Stations






























Interactive Weather Map New forecast layout! Learn more

10-Day Weather Forecast

Advertisements
Track Severe Weather on mobile